Forney, Texas
Current Conditions -  °F | °C
As of 5:50 PM on Tuesday 25 Nov 2014 (Local Time) from KHQZ Reporting Station
Clear Clear  
Wind Chill: 55°   Ceiling: Unl
Heat Index: 55°   Visibility: 10mi
Dew Point: 25°   Wind: 0mph
Humidity: 31%   Direction: NA
Pressure: 30.17"   Gusts: NA
Location:  32.75°N, 96.47°W
Report Text: KHQZ 252350Z 00000KT 10SM CLR 13/M04 A3017
Loading
Personal Weather Stations






























Interactive Weather Map New forecast layout! Learn more

10-Day Weather Forecast

Advertisements
Track Severe Weather on mobile